sensor_id;sensor_type;location;lat;lon;timestamp;P1;durP1;ratioP1;P2;durP2;ratioP2
74229;SDS011;62589;12.568;99.958;2023-07-13T00:00:07;6.50;;;2.05;;
74229;SDS011;62589;12.568;99.958;2023-07-13T00:02:35;5.90;;;1.67;;
74229;SDS011;62589;12.568;99.958;2023-07-13T00:05:02;5.10;;;1.60;;
74229;SDS011;62589;12.568;99.958;2023-07-13T00:07:29;7.82;;;1.60;;
74229;SDS011;62589;12.568;99.958;2023-07-13T00:09:56;4.60;;;1.48;;
74229;SDS011;62589;12.568;99.958;2023-07-13T00:12:25;3.60;;;1.38;;
74229;SDS011;62589;12.568;99.958;2023-07-13T00:14:57;4.78;;;1.40;;
74229;SDS011;62589;12.568;99.958;2023-07-13T00:17:26;3.25;;;1.27;;
74229;SDS011;62589;12.568;99.958;2023-07-13T00:19:54;3.10;;;0.95;;
74229;SDS011;62589;12.568;99.958;2023-07-13T00:22:22;3.17;;;1.20;;
74229;SDS011;62589;12.568;99.958;2023-07-13T00:24:51;6.13;;;1.52;;
74229;SDS011;62589;12.568;99.958;2023-07-13T00:27:20;3.72;;;1.10;;
74229;SDS011;62589;12.568;99.958;2023-07-13T00:29:47;4.20;;;1.00;;
74229;SDS011;62589;12.568;99.958;2023-07-13T00:32:14;3.25;;;1.23;;
74229;SDS011;62589;12.568;99.958;2023-07-13T00:34:40;4.07;;;1.20;;
74229;SDS011;62589;12.568;99.958;2023-07-13T00:37:07;4.00;;;1.27;;
74229;SDS011;62589;12.568;99.958;2023-07-13T00:39:34;5.30;;;1.27;;
74229;SDS011;62589;12.568;99.958;2023-07-13T00:42:01;3.25;;;1.10;;
74229;SDS011;62589;12.568;99.958;2023-07-13T00:44:29;4.93;;;1.27;;
74229;SDS011;62589;12.568;99.958;2023-07-13T00:46:56;4.65;;;1.52;;
74229;SDS011;62589;12.568;99.958;2023-07-13T00:49:24;5.93;;;1.55;;
74229;SDS011;62589;12.568;99.958;2023-07-13T00:51:57;6.57;;;1.50;;
74229;SDS011;62589;12.568;99.958;2023-07-13T00:54:29;8.05;;;1.77;;
74229;SDS011;62589;12.568;99.958;2023-07-13T00:57:00;5.18;;;1.45;;
74229;SDS011;62589;12.568;99.958;2023-07-13T00:59:31;5.93;;;1.40;;
74229;SDS011;62589;12.568;99.958;2023-07-13T01:01:59;8.77;;;1.83;;
74229;SDS011;62589;12.568;99.958;2023-07-13T01:04:26;6.15;;;1.50;;
74229;SDS011;62589;12.568;99.958;2023-07-13T01:06:53;8.32;;;1.45;;
74229;SDS011;62589;12.568;99.958;2023-07-13T01:09:20;2.67;;;1.10;;
74229;SDS011;62589;12.568;99.958;2023-07-13T01:11:47;5.22;;;1.63;;
74229;SDS011;62589;12.568;99.958;2023-07-13T01:14:13;4.85;;;1.13;;
74229;SDS011;62589;12.568;99.958;2023-07-13T01:16:40;6.40;;;1.60;;
74229;SDS011;62589;12.568;99.958;2023-07-13T01:19:12;3.85;;;1.10;;
74229;SDS011;62589;12.568;99.958;2023-07-13T01:22:02;5.95;;;1.55;;
74229;SDS011;62589;12.568;99.958;2023-07-13T01:24:30;5.40;;;1.42;;
74229;SDS011;62589;12.568;99.958;2023-07-13T01:26:56;4.63;;;1.20;;
74229;SDS011;62589;12.568;99.958;2023-07-13T01:29:23;4.65;;;1.13;;
74229;SDS011;62589;12.568;99.958;2023-07-13T01:31:49;3.58;;;0.85;;
74229;SDS011;62589;12.568;99.958;2023-07-13T01:34:15;3.42;;;1.33;;
74229;SDS011;62589;12.568;99.958;2023-07-13T01:36:42;5.22;;;1.27;;
74229;SDS011;62589;12.568;99.958;2023-07-13T01:39:08;6.50;;;1.13;;
74229;SDS011;62589;12.568;99.958;2023-07-13T01:41:35;3.13;;;1.05;;
74229;SDS011;62589;12.568;99.958;2023-07-13T01:44:01;2.53;;;1.17;;
74229;SDS011;62589;12.568;99.958;2023-07-13T01:46:28;4.97;;;1.23;;
74229;SDS011;62589;12.568;99.958;2023-07-13T01:48:54;3.50;;;1.17;;
74229;SDS011;62589;12.568;99.958;2023-07-13T01:51:21;3.33;;;0.98;;
74229;SDS011;62589;12.568;99.958;2023-07-13T01:53:47;5.82;;;1.23;;
74229;SDS011;62589;12.568;99.958;2023-07-13T01:56:15;2.25;;;0.90;;
74229;SDS011;62589;12.568;99.958;2023-07-13T01:58:41;3.55;;;0.95;;
74229;SDS011;62589;12.568;99.958;2023-07-13T02:01:08;2.75;;;0.95;;
74229;SDS011;62589;12.568;99.958;2023-07-13T02:03:34;2.60;;;0.70;;
74229;SDS011;62589;12.568;99.958;2023-07-13T02:06:01;3.58;;;1.15;;
74229;SDS011;62589;12.568;99.958;2023-07-13T02:08:28;3.40;;;1.02;;
74229;SDS011;62589;12.568;99.958;2023-07-13T02:10:55;3.85;;;0.90;;
74229;SDS011;62589;12.568;99.958;2023-07-13T02:13:21;3.17;;;0.70;;
74229;SDS011;62589;12.568;99.958;2023-07-13T02:15:50;4.38;;;0.88;;
74229;SDS011;62589;12.568;99.958;2023-07-13T02:18:17;4.35;;;1.05;;
74229;SDS011;62589;12.568;99.958;2023-07-13T02:20:44;4.15;;;0.73;;
74229;SDS011;62589;12.568;99.958;2023-07-13T02:23:11;4.22;;;1.08;;
74229;SDS011;62589;12.568;99.958;2023-07-13T02:25:37;4.22;;;1.40;;
74229;SDS011;62589;12.568;99.958;2023-07-13T02:28:04;4.32;;;0.75;;
74229;SDS011;62589;12.568;99.958;2023-07-13T02:30:31;3.95;;;0.90;;
74229;SDS011;62589;12.568;99.958;2023-07-13T02:32:57;3.38;;;1.15;;
74229;SDS011;62589;12.568;99.958;2023-07-13T02:35:24;3.90;;;1.05;;
74229;SDS011;62589;12.568;99.958;2023-07-13T02:37:50;3.22;;;0.80;;
74229;SDS011;62589;12.568;99.958;2023-07-13T02:40:17;5.07;;;1.20;;
74229;SDS011;62589;12.568;99.958;2023-07-13T02:42:43;6.85;;;0.95;;
74229;SDS011;62589;12.568;99.958;2023-07-13T02:45:10;4.45;;;0.88;;
74229;SDS011;62589;12.568;99.958;2023-07-13T02:47:39;4.15;;;0.88;;
74229;SDS011;62589;12.568;99.958;2023-07-13T02:50:07;2.78;;;0.88;;
74229;SDS011;62589;12.568;99.958;2023-07-13T02:52:34;4.18;;;1.00;;
74229;SDS011;62589;12.568;99.958;2023-07-13T02:55:01;4.82;;;0.95;;
74229;SDS011;62589;12.568;99.958;2023-07-13T02:57:28;3.97;;;1.27;;
74229;SDS011;62589;12.568;99.958;2023-07-13T02:59:55;3.80;;;0.82;;
74229;SDS011;62589;12.568;99.958;2023-07-13T03:02:22;5.38;;;1.27;;
74229;SDS011;62589;12.568;99.958;2023-07-13T03:04:48;2.78;;;0.70;;
74229;SDS011;62589;12.568;99.958;2023-07-13T03:07:15;2.25;;;0.85;;
74229;SDS011;62589;12.568;99.958;2023-07-13T03:09:41;4.28;;;0.68;;
74229;SDS011;62589;12.568;99.958;2023-07-13T03:12:08;4.78;;;0.95;;
74229;SDS011;62589;12.568;99.958;2023-07-13T03:14:34;3.55;;;1.08;;
74229;SDS011;62589;12.568;99.958;2023-07-13T03:17:01;4.50;;;1.20;;
74229;SDS011;62589;12.568;99.958;2023-07-13T03:19:27;2.83;;;1.40;;
74229;SDS011;62589;12.568;99.958;2023-07-13T03:21:54;5.28;;;2.13;;
74229;SDS011;62589;12.568;99.958;2023-07-13T03:24:20;4.07;;;1.60;;
74229;SDS011;62589;12.568;99.958;2023-07-13T03:26:49;6.43;;;1.63;;
74229;SDS011;62589;12.568;99.958;2023-07-13T03:29:16;4.57;;;1.80;;
74229;SDS011;62589;12.568;99.958;2023-07-13T03:31:42;5.50;;;1.70;;
74229;SDS011;62589;12.568;99.958;2023-07-13T03:34:09;4.82;;;1.30;;
74229;SDS011;62589;12.568;99.958;2023-07-13T03:36:35;2.95;;;1.00;;
74229;SDS011;62589;12.568;99.958;2023-07-13T03:39:02;1.00;;;0.50;;
74229;SDS011;62589;12.568;99.958;2023-07-13T03:41:29;5.57;;;1.33;;
74229;SDS011;62589;12.568;99.958;2023-07-13T03:43:57;4.40;;;1.08;;
74229;SDS011;62589;12.568;99.958;2023-07-13T03:46:23;4.20;;;1.10;;
74229;SDS011;62589;12.568;99.958;2023-07-13T03:48:50;3.55;;;0.77;;
74229;SDS011;62589;12.568;99.958;2023-07-13T03:51:17;2.97;;;0.70;;
74229;SDS011;62589;12.568;99.958;2023-07-13T03:53:45;3.10;;;0.75;;
74229;SDS011;62589;12.568;99.958;2023-07-13T03:56:13;4.45;;;0.73;;
74229;SDS011;62589;12.568;99.958;2023-07-13T03:58:41;3.90;;;0.73;;
74229;SDS011;62589;12.568;99.958;2023-07-13T04:01:09;2.85;;;0.80;;
74229;SDS011;62589;12.568;99.958;2023-07-13T04:03:37;1.20;;;0.43;;
74229;SDS011;62589;12.568;99.958;2023-07-13T04:06:05;2.13;;;0.70;;
74229;SDS011;62589;12.568;99.958;2023-07-13T04:08:34;4.07;;;1.02;;
74229;SDS011;62589;12.568;99.958;2023-07-13T04:11:02;4.97;;;1.05;;
74229;SDS011;62589;12.568;99.958;2023-07-13T04:13:30;4.68;;;0.75;;
74229;SDS011;62589;12.568;99.958;2023-07-13T04:15:57;2.53;;;0.45;;
74229;SDS011;62589;12.568;99.958;2023-07-13T04:18:24;5.22;;;0.80;;
74229;SDS011;62589;12.568;99.958;2023-07-13T04:20:50;4.03;;;1.00;;
74229;SDS011;62589;12.568;99.958;2023-07-13T04:23:17;4.22;;;0.90;;
74229;SDS011;62589;12.568;99.958;2023-07-13T04:25:45;2.90;;;0.80;;
74229;SDS011;62589;12.568;99.958;2023-07-13T04:28:15;1.48;;;0.60;;
74229;SDS011;62589;12.568;99.958;2023-07-13T04:30:43;3.63;;;0.73;;
74229;SDS011;62589;12.568;99.958;2023-07-13T04:33:09;5.22;;;0.60;;
74229;SDS011;62589;12.568;99.958;2023-07-13T04:35:36;2.83;;;0.90;;
74229;SDS011;62589;12.568;99.958;2023-07-13T04:38:03;4.97;;;0.85;;
74229;SDS011;62589;12.568;99.958;2023-07-13T04:40:30;1.60;;;0.85;;
74229;SDS011;62589;12.568;99.958;2023-07-13T04:42:56;3.10;;;0.75;;
74229;SDS011;62589;12.568;99.958;2023-07-13T04:45:23;3.20;;;0.60;;
74229;SDS011;62589;12.568;99.958;2023-07-13T04:47:50;3.42;;;0.98;;
74229;SDS011;62589;12.568;99.958;2023-07-13T04:50:17;3.83;;;0.88;;
74229;SDS011;62589;12.568;99.958;2023-07-13T04:52:50;2.42;;;0.88;;
74229;SDS011;62589;12.568;99.958;2023-07-13T04:55:17;3.45;;;0.50;;
74229;SDS011;62589;12.568;99.958;2023-07-13T04:57:45;3.40;;;0.70;;
74229;SDS011;62589;12.568;99.958;2023-07-13T05:00:12;3.03;;;0.70;;
74229;SDS011;62589;12.568;99.958;2023-07-13T05:02:42;2.28;;;0.60;;
74229;SDS011;62589;12.568;99.958;2023-07-13T05:05:11;2.20;;;0.60;;
74229;SDS011;62589;12.568;99.958;2023-07-13T05:07:37;1.92;;;0.75;;
74229;SDS011;62589;12.568;99.958;2023-07-13T05:10:04;1.02;;;0.32;;
74229;SDS011;62589;12.568;99.958;2023-07-13T05:12:31;2.15;;;0.50;;
74229;SDS011;62589;12.568;99.958;2023-07-13T05:14:58;2.85;;;0.63;;
74229;SDS011;62589;12.568;99.958;2023-07-13T05:17:24;1.77;;;0.60;;
74229;SDS011;62589;12.568;99.958;2023-07-13T05:19:51;3.28;;;0.98;;
74229;SDS011;62589;12.568;99.958;2023-07-13T05:22:17;4.03;;;0.70;;
74229;SDS011;62589;12.568;99.958;2023-07-13T05:24:44;4.00;;;1.08;;
74229;SDS011;62589;12.568;99.958;2023-07-13T05:27:10;1.48;;;0.45;;
74229;SDS011;62589;12.568;99.958;2023-07-13T05:29:37;4.60;;;0.70;;
74229;SDS011;62589;12.568;99.958;2023-07-13T05:32:03;2.70;;;0.52;;
74229;SDS011;62589;12.568;99.958;2023-07-13T05:34:30;1.90;;;0.55;;
74229;SDS011;62589;12.568;99.958;2023-07-13T05:36:57;2.78;;;0.60;;
74229;SDS011;62589;12.568;99.958;2023-07-13T05:39:23;3.15;;;0.68;;
74229;SDS011;62589;12.568;99.958;2023-07-13T05:41:51;3.85;;;1.20;;
74229;SDS011;62589;12.568;99.958;2023-07-13T05:44:17;4.38;;;1.08;;
74229;SDS011;62589;12.568;99.958;2023-07-13T05:46:44;4.22;;;1.10;;
74229;SDS011;62589;12.568;99.958;2023-07-13T05:49:11;2.83;;;0.90;;
74229;SDS011;62589;12.568;99.958;2023-07-13T05:51:37;3.47;;;0.90;;
74229;SDS011;62589;12.568;99.958;2023-07-13T05:54:04;8.00;;;1.40;;
74229;SDS011;62589;12.568;99.958;2023-07-13T05:56:30;3.78;;;1.08;;
74229;SDS011;62589;12.568;99.958;2023-07-13T05:58:57;6.18;;;1.55;;
74229;SDS011;62589;12.568;99.958;2023-07-13T06:01:23;4.15;;;1.23;;
74229;SDS011;62589;12.568;99.958;2023-07-13T06:03:50;3.10;;;1.02;;
74229;SDS011;62589;12.568;99.958;2023-07-13T06:06:16;5.88;;;1.88;;
74229;SDS011;62589;12.568;99.958;2023-07-13T06:08:43;3.03;;;1.20;;
74229;SDS011;62589;12.568;99.958;2023-07-13T06:11:12;4.18;;;1.48;;
74229;SDS011;62589;12.568;99.958;2023-07-13T06:13:43;4.95;;;1.40;;
74229;SDS011;62589;12.568;99.958;2023-07-13T06:16:10;7.38;;;1.52;;
74229;SDS011;62589;12.568;99.958;2023-07-13T06:18:38;5.93;;;1.38;;
74229;SDS011;62589;12.568;99.958;2023-07-13T06:21:16;6.00;;;1.58;;
74229;SDS011;62589;12.568;99.958;2023-07-13T06:23:46;5.90;;;1.30;;
74229;SDS011;62589;12.568;99.958;2023-07-13T06:26:14;5.10;;;1.63;;
74229;SDS011;62589;12.568;99.958;2023-07-13T06:28:41;4.80;;;1.55;;
74229;SDS011;62589;12.568;99.958;2023-07-13T06:31:09;5.47;;;1.40;;
74229;SDS011;62589;12.568;99.958;2023-07-13T06:33:37;5.57;;;1.50;;
74229;SDS011;62589;12.568;99.958;2023-07-13T06:36:05;3.70;;;1.58;;
74229;SDS011;62589;12.568;99.958;2023-07-13T06:38:33;8.88;;;1.95;;
74229;SDS011;62589;12.568;99.958;2023-07-13T06:41:00;6.53;;;1.55;;
74229;SDS011;62589;12.568;99.958;2023-07-13T06:43:27;8.30;;;1.60;;
74229;SDS011;62589;12.568;99.958;2023-07-13T06:45:55;5.55;;;1.55;;
74229;SDS011;62589;12.568;99.958;2023-07-13T06:48:22;5.97;;;1.80;;
74229;SDS011;62589;12.568;99.958;2023-07-13T06:50:49;6.55;;;1.77;;
74229;SDS011;62589;12.568;99.958;2023-07-13T06:53:17;6.15;;;1.40;;
74229;SDS011;62589;12.568;99.958;2023-07-13T06:55:45;4.22;;;1.58;;
74229;SDS011;62589;12.568;99.958;2023-07-13T06:58:12;5.88;;;1.98;;
74229;SDS011;62589;12.568;99.958;2023-07-13T07:00:40;6.47;;;1.90;;
74229;SDS011;62589;12.568;99.958;2023-07-13T07:03:07;8.57;;;1.90;;
74229;SDS011;62589;12.568;99.958;2023-07-13T07:05:33;8.65;;;1.45;;
74229;SDS011;62589;12.568;99.958;2023-07-13T07:08:00;6.22;;;1.75;;
74229;SDS011;62589;12.568;99.958;2023-07-13T07:10:28;5.25;;;1.65;;
74229;SDS011;62589;12.568;99.958;2023-07-13T07:12:56;3.70;;;1.33;;
74229;SDS011;62589;12.568;99.958;2023-07-13T07:15:22;4.60;;;1.30;;
74229;SDS011;62589;12.568;99.958;2023-07-13T07:17:49;8.05;;;2.05;;
74229;SDS011;62589;12.568;99.958;2023-07-13T07:20:15;4.55;;;1.50;;
74229;SDS011;62589;12.568;99.958;2023-07-13T07:22:42;7.40;;;1.77;;
74229;SDS011;62589;12.568;99.958;2023-07-13T07:25:08;6.07;;;1.60;;
74229;SDS011;62589;12.568;99.958;2023-07-13T07:27:35;5.68;;;1.45;;
74229;SDS011;62589;12.568;99.958;2023-07-13T07:30:01;5.43;;;1.70;;
74229;SDS011;62589;12.568;99.958;2023-07-13T07:32:29;9.30;;;2.13;;
74229;SDS011;62589;12.568;99.958;2023-07-13T07:34:57;4.55;;;2.08;;
74229;SDS011;62589;12.568;99.958;2023-07-13T07:37:23;10.00;;;2.55;;
74229;SDS011;62589;12.568;99.958;2023-07-13T07:39:50;5.22;;;1.42;;
74229;SDS011;62589;12.568;99.958;2023-07-13T07:42:20;5.93;;;1.15;;
74229;SDS011;62589;12.568;99.958;2023-07-13T07:44:49;7.88;;;1.73;;
74229;SDS011;62589;12.568;99.958;2023-07-13T07:47:16;4.75;;;1.58;;
74229;SDS011;62589;12.568;99.958;2023-07-13T07:49:43;7.72;;;1.70;;
74229;SDS011;62589;12.568;99.958;2023-07-13T07:52:09;5.05;;;1.75;;
74229;SDS011;62589;12.568;99.958;2023-07-13T07:54:35;6.53;;;1.80;;
74229;SDS011;62589;12.568;99.958;2023-07-13T07:57:02;6.05;;;2.03;;
74229;SDS011;62589;12.568;99.958;2023-07-13T07:59:29;5.40;;;1.95;;
74229;SDS011;62589;12.568;99.958;2023-07-13T08:01:55;5.68;;;1.73;;
74229;SDS011;62589;12.568;99.958;2023-07-13T08:04:22;10.85;;;2.20;;
74229;SDS011;62589;12.568;99.958;2023-07-13T08:06:48;9.15;;;1.80;;
74229;SDS011;62589;12.568;99.958;2023-07-13T08:09:14;9.38;;;2.10;;
74229;SDS011;62589;12.568;99.958;2023-07-13T08:11:41;11.65;;;2.15;;
74229;SDS011;62589;12.568;99.958;2023-07-13T08:14:07;7.97;;;1.88;;
74229;SDS011;62589;12.568;99.958;2023-07-13T08:16:34;10.82;;;1.67;;
74229;SDS011;62589;12.568;99.958;2023-07-13T08:19:01;14.15;;;2.00;;
74229;SDS011;62589;12.568;99.958;2023-07-13T08:21:27;10.25;;;1.77;;
74229;SDS011;62589;12.568;99.958;2023-07-13T08:23:54;8.95;;;1.73;;
74229;SDS011;62589;12.568;99.958;2023-07-13T08:26:21;8.48;;;1.50;;
74229;SDS011;62589;12.568;99.958;2023-07-13T08:28:48;8.70;;;1.88;;
74229;SDS011;62589;12.568;99.958;2023-07-13T08:31:14;7.57;;;1.52;;
74229;SDS011;62589;12.568;99.958;2023-07-13T08:33:41;4.70;;;0.98;;
74229;SDS011;62589;12.568;99.958;2023-07-13T08:36:08;6.72;;;1.65;;
74229;SDS011;62589;12.568;99.958;2023-07-13T08:38:34;7.85;;;1.83;;
74229;SDS011;62589;12.568;99.958;2023-07-13T08:41:02;9.20;;;1.85;;
74229;SDS011;62589;12.568;99.958;2023-07-13T08:43:40;11.20;;;1.42;;
74229;SDS011;62589;12.568;99.958;2023-07-13T08:46:19;4.97;;;1.65;;
74229;SDS011;62589;12.568;99.958;2023-07-13T08:48:56;5.60;;;1.33;;
74229;SDS011;62589;12.568;99.958;2023-07-13T08:57:13;4.82;;;1.50;;
74229;SDS011;62589;12.568;99.958;2023-07-13T08:59:42;4.85;;;1.45;;
74229;SDS011;62589;12.568;99.958;2023-07-13T09:02:20;3.55;;;1.10;;
74229;SDS011;62589;12.568;99.958;2023-07-13T09:05:30;5.10;;;1.88;;
74229;SDS011;62589;12.568;99.958;2023-07-13T09:17:02;5.40;;;1.80;;
74229;SDS011;62589;12.568;99.958;2023-07-13T09:19:31;6.18;;;1.55;;
74229;SDS011;62589;12.568;99.958;2023-07-13T09:22:01;6.63;;;1.90;;
74229;SDS011;62589;12.568;99.958;2023-07-13T09:24:38;6.20;;;2.10;;
74229;SDS011;62589;12.568;99.958;2023-07-13T09:27:27;4.28;;;1.55;;
74229;SDS011;62589;12.568;99.958;2023-07-13T09:30:07;8.52;;;2.03;;
74229;SDS011;62589;12.568;99.958;2023-07-13T09:32:51;4.65;;;1.38;;
74229;SDS011;62589;12.568;99.958;2023-07-13T09:35:20;5.53;;;1.80;;
74229;SDS011;62589;12.568;99.958;2023-07-13T09:38:04;5.03;;;1.60;;
74229;SDS011;62589;12.568;99.958;2023-07-13T09:43:34;8.25;;;1.88;;
74229;SDS011;62589;12.568;99.958;2023-07-13T09:46:01;8.15;;;2.22;;
74229;SDS011;62589;12.568;99.958;2023-07-13T09:48:33;5.70;;;1.65;;
74229;SDS011;62589;12.568;99.958;2023-07-13T09:51:13;5.45;;;1.88;;
74229;SDS011;62589;12.568;99.958;2023-07-13T09:53:41;7.60;;;2.05;;
74229;SDS011;62589;12.568;99.958;2023-07-13T09:58:48;9.32;;;2.25;;
74229;SDS011;62589;12.568;99.958;2023-07-13T10:01:15;11.05;;;2.05;;
74229;SDS011;62589;12.568;99.958;2023-07-13T10:03:56;6.32;;;1.92;;
74229;SDS011;62589;12.568;99.958;2023-07-13T10:06:23;2.78;;;1.58;;
74229;SDS011;62589;12.568;99.958;2023-07-13T10:08:51;4.75;;;1.92;;
74229;SDS011;62589;12.568;99.958;2023-07-13T10:11:22;5.35;;;1.80;;
74229;SDS011;62589;12.568;99.958;2023-07-13T10:14:00;4.13;;;1.52;;
74229;SDS011;62589;12.568;99.958;2023-07-13T10:16:35;6.03;;;1.52;;
74229;SDS011;62589;12.568;99.958;2023-07-13T10:19:05;4.53;;;1.60;;
74229;SDS011;62589;12.568;99.958;2023-07-13T10:24:27;5.25;;;2.05;;
74229;SDS011;62589;12.568;99.958;2023-07-13T10:27:01;5.55;;;1.70;;
74229;SDS011;62589;12.568;99.958;2023-07-13T10:29:46;7.80;;;1.80;;
74229;SDS011;62589;12.568;99.958;2023-07-13T10:32:34;7.07;;;2.13;;
74229;SDS011;62589;12.568;99.958;2023-07-13T10:35:01;3.97;;;1.60;;
74229;SDS011;62589;12.568;99.958;2023-07-13T10:37:30;2.83;;;1.75;;
74229;SDS011;62589;12.568;99.958;2023-07-13T10:42:42;3.95;;;1.65;;
74229;SDS011;62589;12.568;99.958;2023-07-13T10:45:13;6.30;;;1.83;;
74229;SDS011;62589;12.568;99.958;2023-07-13T10:47:43;4.20;;;1.85;;
74229;SDS011;62589;12.568;99.958;2023-07-13T10:50:29;3.90;;;1.83;;
74229;SDS011;62589;12.568;99.958;2023-07-13T10:53:03;4.10;;;1.40;;
74229;SDS011;62589;12.568;99.958;2023-07-13T10:55:55;5.82;;;1.90;;
74229;SDS011;62589;12.568;99.958;2023-07-13T10:58:35;4.15;;;1.80;;
74229;SDS011;62589;12.568;99.958;2023-07-13T11:01:12;4.00;;;1.50;;
74229;SDS011;62589;12.568;99.958;2023-07-13T11:03:50;4.07;;;1.52;;
74229;SDS011;62589;12.568;99.958;2023-07-13T11:06:37;4.43;;;2.00;;
74229;SDS011;62589;12.568;99.958;2023-07-13T11:15:12;6.55;;;1.80;;
74229;SDS011;62589;12.568;99.958;2023-07-13T11:20:36;3.55;;;1.92;;
74229;SDS011;62589;12.568;99.958;2023-07-13T11:23:09;6.45;;;2.08;;
74229;SDS011;62589;12.568;99.958;2023-07-13T11:25:45;2.75;;;1.90;;
74229;SDS011;62589;12.568;99.958;2023-07-13T11:28:16;7.13;;;2.03;;
74229;SDS011;62589;12.568;99.958;2023-07-13T11:36:19;6.20;;;1.92;;
74229;SDS011;62589;12.568;99.958;2023-07-13T11:38:57;2.22;;;1.63;;
74229;SDS011;62589;12.568;99.958;2023-07-13T11:41:37;7.43;;;1.73;;
74229;SDS011;62589;12.568;99.958;2023-07-13T11:44:12;4.97;;;1.95;;
74229;SDS011;62589;12.568;99.958;2023-07-13T11:46:45;6.20;;;3.30;;
74229;SDS011;62589;12.568;99.958;2023-07-13T11:49:17;9.05;;;4.00;;
74229;SDS011;62589;12.568;99.958;2023-07-13T11:51:47;7.85;;;3.90;;
74229;SDS011;62589;12.568;99.958;2023-07-13T11:59:56;7.78;;;3.08;;
74229;SDS011;62589;12.568;99.958;2023-07-13T12:02:36;4.85;;;3.00;;
74229;SDS011;62589;12.568;99.958;2023-07-13T12:05:13;7.03;;;3.72;;
74229;SDS011;62589;12.568;99.958;2023-07-13T12:07:41;7.43;;;2.95;;
74229;SDS011;62589;12.568;99.958;2023-07-13T12:12:55;4.60;;;2.22;;
74229;SDS011;62589;12.568;99.958;2023-07-13T12:15:27;3.58;;;2.33;;
74229;SDS011;62589;12.568;99.958;2023-07-13T12:18:09;2.15;;;1.70;;
74229;SDS011;62589;12.568;99.958;2023-07-13T12:20:47;3.13;;;1.70;;
74229;SDS011;62589;12.568;99.958;2023-07-13T12:26:03;3.47;;;1.65;;
74229;SDS011;62589;12.568;99.958;2023-07-13T12:28:35;4.75;;;1.65;;
74229;SDS011;62589;12.568;99.958;2023-07-13T12:34:01;2.72;;;1.73;;
74229;SDS011;62589;12.568;99.958;2023-07-13T12:36:38;4.70;;;1.85;;
74229;SDS011;62589;12.568;99.958;2023-07-13T12:39:25;2.67;;;1.73;;
74229;SDS011;62589;12.568;99.958;2023-07-13T12:44:59;4.82;;;1.80;;
74229;SDS011;62589;12.568;99.958;2023-07-13T12:47:29;4.15;;;1.70;;
74229;SDS011;62589;12.568;99.958;2023-07-13T12:49:58;4.57;;;1.58;;
74229;SDS011;62589;12.568;99.958;2023-07-13T12:52:33;2.47;;;1.35;;
74229;SDS011;62589;12.568;99.958;2023-07-13T12:55:09;3.20;;;1.00;;
74229;SDS011;62589;12.568;99.958;2023-07-13T12:57:40;3.10;;;1.27;;
74229;SDS011;62589;12.568;99.958;2023-07-13T13:00:19;2.85;;;1.23;;
74229;SDS011;62589;12.568;99.958;2023-07-13T13:02:58;1.90;;;1.00;;
74229;SDS011;62589;12.568;99.958;2023-07-13T13:05:30;3.58;;;0.95;;
74229;SDS011;62589;12.568;99.958;2023-07-13T13:07:59;2.13;;;0.90;;
74229;SDS011;62589;12.568;99.958;2023-07-13T13:10:26;3.17;;;1.10;;
74229;SDS011;62589;12.568;99.958;2023-07-13T13:12:52;3.60;;;1.30;;
74229;SDS011;62589;12.568;99.958;2023-07-13T13:15:18;2.35;;;1.10;;
74229;SDS011;62589;12.568;99.958;2023-07-13T13:17:47;3.38;;;1.38;;
74229;SDS011;62589;12.568;99.958;2023-07-13T13:20:19;4.25;;;1.45;;
74229;SDS011;62589;12.568;99.958;2023-07-13T13:25:14;6.85;;;1.52;;
74229;SDS011;62589;12.568;99.958;2023-07-13T13:27:41;3.65;;;1.73;;
74229;SDS011;62589;12.568;99.958;2023-07-13T13:30:12;5.43;;;1.55;;
74229;SDS011;62589;12.568;99.958;2023-07-13T13:32:42;3.70;;;1.48;;
74229;SDS011;62589;12.568;99.958;2023-07-13T13:35:14;3.63;;;1.35;;
74229;SDS011;62589;12.568;99.958;2023-07-13T13:37:43;2.60;;;1.40;;
74229;SDS011;62589;12.568;99.958;2023-07-13T13:40:17;7.20;;;1.58;;
74229;SDS011;62589;12.568;99.958;2023-07-13T13:42:45;2.92;;;1.10;;
74229;SDS011;62589;12.568;99.958;2023-07-13T13:45:11;3.03;;;1.02;;
74229;SDS011;62589;12.568;99.958;2023-07-13T13:47:38;2.55;;;1.30;;
74229;SDS011;62589;12.568;99.958;2023-07-13T13:50:16;3.25;;;1.17;;
74229;SDS011;62589;12.568;99.958;2023-07-13T13:52:45;3.63;;;1.35;;
74229;SDS011;62589;12.568;99.958;2023-07-13T13:55:19;3.25;;;1.50;;
74229;SDS011;62589;12.568;99.958;2023-07-13T13:57:47;3.72;;;1.10;;
74229;SDS011;62589;12.568;99.958;2023-07-13T14:00:14;2.33;;;0.90;;
74229;SDS011;62589;12.568;99.958;2023-07-13T14:02:46;2.45;;;0.93;;
74229;SDS011;62589;12.568;99.958;2023-07-13T14:05:19;4.40;;;1.13;;
74229;SDS011;62589;12.568;99.958;2023-07-13T14:07:48;1.52;;;0.90;;
74229;SDS011;62589;12.568;99.958;2023-07-13T14:10:16;3.47;;;0.90;;
74229;SDS011;62589;12.568;99.958;2023-07-13T14:12:44;4.50;;;1.20;;
74229;SDS011;62589;12.568;99.958;2023-07-13T14:15:23;4.57;;;1.75;;
74229;SDS011;62589;12.568;99.958;2023-07-13T14:17:54;4.32;;;1.92;;
74229;SDS011;62589;12.568;99.958;2023-07-13T14:20:21;3.97;;;1.15;;
74229;SDS011;62589;12.568;99.958;2023-07-13T14:22:49;4.35;;;1.13;;
74229;SDS011;62589;12.568;99.958;2023-07-13T14:25:18;5.93;;;1.48;;
74229;SDS011;62589;12.568;99.958;2023-07-13T14:27:46;5.53;;;2.00;;
74229;SDS011;62589;12.568;99.958;2023-07-13T14:30:18;4.60;;;2.17;;
74229;SDS011;62589;12.568;99.958;2023-07-13T14:32:46;4.22;;;1.88;;
74229;SDS011;62589;12.568;99.958;2023-07-13T14:35:14;4.35;;;2.28;;
74229;SDS011;62589;12.568;99.958;2023-07-13T14:37:45;4.15;;;2.17;;
74229;SDS011;62589;12.568;99.958;2023-07-13T14:42:55;3.93;;;1.87;;
74229;SDS011;62589;12.568;99.958;2023-07-13T14:45:21;5.22;;;2.10;;
74229;SDS011;62589;12.568;99.958;2023-07-13T14:47:48;5.45;;;2.03;;
74229;SDS011;62589;12.568;99.958;2023-07-13T14:50:16;5.25;;;2.20;;
74229;SDS011;62589;12.568;99.958;2023-07-13T14:52:45;3.47;;;1.55;;
74229;SDS011;62589;12.568;99.958;2023-07-13T14:55:13;4.65;;;1.77;;
74229;SDS011;62589;12.568;99.958;2023-07-13T14:57:42;5.03;;;1.73;;
74229;SDS011;62589;12.568;99.958;2023-07-13T15:00:12;5.97;;;2.00;;
74229;SDS011;62589;12.568;99.958;2023-07-13T15:02:45;3.13;;;1.65;;
74229;SDS011;62589;12.568;99.958;2023-07-13T15:05:17;6.47;;;2.63;;
74229;SDS011;62589;12.568;99.958;2023-07-13T15:07:45;6.15;;;2.95;;
74229;SDS011;62589;12.568;99.958;2023-07-13T15:10:16;7.68;;;3.15;;
74229;SDS011;62589;12.568;99.958;2023-07-13T15:12:44;6.03;;;3.10;;
74229;SDS011;62589;12.568;99.958;2023-07-13T15:15:11;5.68;;;2.88;;
74229;SDS011;62589;12.568;99.958;2023-07-13T15:17:40;5.25;;;2.65;;
74229;SDS011;62589;12.568;99.958;2023-07-13T15:22:56;4.13;;;1.58;;
74229;SDS011;62589;12.568;99.958;2023-07-13T15:25:23;3.20;;;1.67;;
74229;SDS011;62589;12.568;99.958;2023-07-13T15:27:54;4.72;;;1.90;;
74229;SDS011;62589;12.568;99.958;2023-07-13T15:30:21;3.42;;;1.50;;
74229;SDS011;62589;12.568;99.958;2023-07-13T15:32:48;4.07;;;1.70;;
74229;SDS011;62589;12.568;99.958;2023-07-13T15:35:16;5.25;;;1.75;;
74229;SDS011;62589;12.568;99.958;2023-07-13T15:37:45;2.45;;;1.08;;
74229;SDS011;62589;12.568;99.958;2023-07-13T15:40:12;5.05;;;1.23;;
74229;SDS011;62589;12.568;99.958;2023-07-13T15:42:41;2.50;;;0.98;;
74229;SDS011;62589;12.568;99.958;2023-07-13T15:45:15;6.57;;;1.58;;
74229;SDS011;62589;12.568;99.958;2023-07-13T15:47:47;2.92;;;1.20;;
74229;SDS011;62589;12.568;99.958;2023-07-13T15:50:18;3.20;;;1.05;;